Birdwell, United Kingdom
Current Conditions -  °F | °C
As of 3:50 PM on Thursday 23 Oct 2014 (Local Time) from EGCN Reporting Station
Light Rain Light Rain  
Wind Chill: 59°   Ceiling: 1700
Heat Index: 59°   Visibility: 6mi
Dew Point: 54°   Wind: 9mph
Humidity: 82%   Direction: 160°SSE
Pressure: 29.94"   Gusts: NA
Location:  53.51°N, 1.48°W
Report Text: EGCN 231450Z 16008KT 9999 -RA OVC017 15/12 Q1014
Loading
Personal Weather Stations






























Interactive Weather Map New forecast layout! Learn more

10-Day Weather Forecast

Advertisements
Track Severe Weather on mobile